This is the latest recevied weather packets stored in our database for station/object IW5CTE-13. If no packets are shown the sender has not sent any weather packets the latest 10 day(s).
| Time | Temp. | Humidity | Pressure | Rain* | Wind** | Luminosity | Snow |
|---|---|---|---|---|---|---|---|
| 1777842452 | 16.67° C | 86% | 1020.4 hPa | - | - | - | - |
| 1777841852 | 16.67° C | 85% | 1020.4 hPa | - | - | - | - |
| 1777841252 | 16.67° C | 84% | 1020.5 hPa | - | - | - | - |
| 1777840652 | 16.67° C | 83% | 1020.4 hPa | - | - | - | - |
| 1777840052 | 16.67° C | 82% | 1020.3 hPa | - | - | - | - |
| 1777839453 | 17.22° C | 80% | 1020.3 hPa | - | - | - | - |
| 1777838854 | 17.22° C | 80% | 1020.3 hPa | - | - | - | - |
| 1777838252 | 17.78° C | 79% | 1020.3 hPa | - | - | - | - |
| 1777837652 | 17.22° C | 80% | 1020.1 hPa | - | - | - | - |
| 1777837052 | 17.78° C | 78% | 1020.3 hPa | - | - | - | - |
| 1777836452 | 17.78° C | 76% | 1020.1 hPa | - | - | - | - |
| 1777835852 | 17.78° C | 76% | 1020.2 hPa | - | - | - | - |
| 1777835253 | 17.78° C | 75% | 1020.1 hPa | - | - | - | - |
| 1777834652 | 17.78° C | 75% | 1019.9 hPa | - | - | - | - |
| 1777834052 | 18.33° C | 75% | 1020 hPa | - | - | - | - |
| 1777833452 | 18.33° C | 73% | 1019.8 hPa | - | - | - | - |
| 1777832852 | 18.33° C | 71% | 1019.8 hPa | - | - | - | - |
| 1777832252 | 18.89° C | 71% | 1019.8 hPa | - | - | - | - |
| 1777831652 | 18.89° C | 70% | 1019.7 hPa | - | - | - | - |
| 1777831052 | 18.89° C | 69% | 1019.6 hPa | - | - | - | - |
| 1777830452 | 19.44° C | 67% | 1019.5 hPa | - | - | - | - |
| 1777829853 | 19.44° C | 63% | 1019.5 hPa | - | - | - | - |
| 1777829252 | 19.44° C | 67% | 1019.5 hPa | - | - | - | - |
| 1777828652 | 20° C | 65% | 1019.5 hPa | - | - | - | - |
| 1777828052 | 20° C | 63% | 1019.4 hPa | - | - | - | - |
* Rain since midnight (hover to see other rain measurements)
** Current wind speed in m/s (hover to see current wind gust speed)